»·PEaware :: N221XG KTEX-KEGE

N221XG :: KTEX-KEGE

FLIGHT INFORMATION

Flight Status: Arrived
Operator: Privately registered:
United States
More flights under this callsign
Pilot: Ryan L. (9775)
Aircraft: BEECH AIRCRAFT SUPER KING AIR 350
(B350)
More flights by this aircraft type
Origin: KTEX Telluride Regl
United States
Destination: KEGE Eagle Co Regl
United States
More flights between these airports :: More routes between these airports
Route: ETL V68 MTJ V361 DBL V356 FIDLE
File this flight plan on PilotEdge
Remarks:
Altitude:
(Current/Filed)
23,000ft
Speed:
(Current/Filed)
290kts
Departed: 21-Apr-19 11:53 AM
Arrived: 21-Apr-19 12:46 PM
Distance/Time
Traveled:
112nm/0:53
Distance/Time
To Go:
Arrived

Flight Plot

Page will automatically refresh every two minutes.

Flight plan parsing failed; only flown route is shown


Map Options




Map Legend


Flown Route
Filed Route
Departure Airport
Arrival Airport
Navaid (VOR, NDB)
Fix

Horizontal Profiles

Position Reports

Time Latitude Longitude Heading Altitude Ground
Speed
21-Apr-19 11:41 37.953930 -107.902173 92 9074ft 0kts
21-Apr-19 11:42 37.953930 -107.902173 92 9074ft 0kts
21-Apr-19 11:43 37.953930 -107.902173 92 9074ft 0kts
21-Apr-19 11:44 37.953930 -107.902173 92 9074ft 0kts
21-Apr-19 11:45 37.953930 -107.902173 92 9074ft 0kts
21-Apr-19 11:46 37.953930 -107.902173 92 9074ft 0kts
21-Apr-19 11:47 37.953398 -107.901142 134 9074ft 13kts
21-Apr-19 11:48 37.952475 -107.897001 104 9074ft 10kts
21-Apr-19 11:49 37.952315 -107.896677 149 9074ft 0kts
21-Apr-19 11:50 37.952283 -107.896654 153 9074ft 2kts
21-Apr-19 11:51 37.951429 -107.897598 289 9074ft 9kts
21-Apr-19 11:52 37.959379 -107.931556 281 9626ft 148kts
21-Apr-19 11:53 37.968442 -107.986383 282 11331ft 167kts
21-Apr-19 11:54 37.984525 -108.040125 283 13129ft 165kts
21-Apr-19 11:55 37.998526 -108.095524 283 14782ft 169kts
21-Apr-19 11:56 38.015087 -108.152767 283 16189ft 183kts
21-Apr-19 11:57 38.039131 -108.212980 321 17315ft 220kts
21-Apr-19 11:58 38.100777 -108.209341 25 18952ft 230kts
21-Apr-19 11:59 38.156781 -108.168969 27 20170ft 239kts
21-Apr-19 12:00 38.214385 -108.125631 27 21475ft 243kts
21-Apr-19 12:01 38.270500 -108.081108 29 22691ft 246kts
21-Apr-19 12:02 38.332027 -108.032580 28 23085ft 283kts
21-Apr-19 12:03 38.403323 -107.977953 28 23021ft 309kts
21-Apr-19 12:04 38.477392 -107.921437 28 23010ft 310kts
21-Apr-19 12:05 38.554901 -107.872872 22 22991ft 309kts
21-Apr-19 12:06 38.632697 -107.826448 22 22992ft 309kts
21-Apr-19 12:07 38.688410 -107.792131 23 22992ft 308kts
21-Apr-19 12:08 38.688410 -107.792131 23 22992ft 308kts
21-Apr-19 12:09 38.688410 -107.792131 23 22992ft 308kts
21-Apr-19 12:10 38.688410 -107.792131 23 22992ft 308kts
21-Apr-19 12:11 38.688410 -107.792131 23 22992ft 308kts
21-Apr-19 12:12 38.688410 -107.792131 23 22992ft 308kts
21-Apr-19 12:13 38.688410 -107.792131 23 22992ft 308kts
21-Apr-19 12:14 38.688410 -107.792131 23 22992ft 308kts
21-Apr-19 12:15 38.688410 -107.792131 23 22992ft 308kts
21-Apr-19 12:16 38.688410 -107.792131 23 22992ft 308kts
21-Apr-19 12:17 38.688410 -107.792131 23 22992ft 308kts
21-Apr-19 12:18 38.688410 -107.792131 23 22992ft 308kts
21-Apr-19 12:19 38.688410 -107.792131 23 22992ft 308kts
21-Apr-19 12:20 38.688410 -107.792131 23 22992ft 308kts
21-Apr-19 12:21 38.688410 -107.792131 23 22992ft 308kts
21-Apr-19 12:22 38.688410 -107.792131 23 22992ft 308kts
21-Apr-19 12:23 38.688410 -107.792131 23 22992ft 308kts
21-Apr-19 12:24 38.688410 -107.792131 23 22992ft 308kts
21-Apr-19 12:25 38.713331 -107.776672 23 22993ft 308kts
21-Apr-19 12:26 38.781358 -107.709599 41 22993ft 310kts
21-Apr-19 12:27 38.843156 -107.631730 44 22994ft 310kts
21-Apr-19 12:28 38.903842 -107.553327 40 23001ft 309kts
21-Apr-19 12:29 38.966346 -107.478173 42 23049ft 307kts
21-Apr-19 12:30 39.027818 -107.403004 43 22665ft 294kts
21-Apr-19 12:31 39.083947 -107.333819 44 21119ft 267kts
21-Apr-19 12:32 39.139107 -107.265934 43 19642ft 282kts
21-Apr-19 12:33 39.196135 -107.195795 43 18145ft 282kts
21-Apr-19 12:34 39.252090 -107.126769 43 16631ft 274kts
21-Apr-19 12:35 39.305010 -107.061318 43 16011ft 256kts
21-Apr-19 12:36 39.365665 -107.020205 9 16012ft 249kts
21-Apr-19 12:38 39.433618 -107.002261 9 16009ft 249kts
21-Apr-19 12:39 39.501487 -106.984352 9 16011ft 250kts
21-Apr-19 12:40 39.563815 -106.952908 63 15588ft 240kts
21-Apr-19 12:41 39.587632 -106.877366 68 14059ft 214kts
21-Apr-19 12:42 39.608476 -106.808467 62 12579ft 190kts
21-Apr-19 12:43 39.655281 -106.797039 319 10170ft 180kts
21-Apr-19 12:44 39.651354 -106.845373 245 8202ft 152kts
21-Apr-19 12:45 39.645055 -106.894632 264 6641ft 118kts
21-Apr-19 12:46 39.642659 -106.915828 215 6550ft 7kts
21-Apr-19 12:47 39.641981 -106.913085 81 6550ft 14kts
21-Apr-19 12:48 39.641936 -106.909286 172 6550ft 3kts
21-Apr-19 12:49 39.641402 -106.909579 259 6550ft 0kts
21-Apr-19 12:50 39.641402 -106.909579 259 6550ft 0kts
21-Apr-19 12:51 39.641402 -106.909579 259 6550ft 0kts
21-Apr-19 12:52 39.641402 -106.909579 259 6550ft 0kts
21-Apr-19 12:53 39.641402 -106.909579 259 6550ft 0kts
21-Apr-19 12:54 39.641402 -106.909579 259 6550ft 0kts
21-Apr-19 12:55 39.641402 -106.909579 259 6550ft 0kts
21-Apr-19 12:56 39.641402 -106.909579 259 6550ft 0kts
21-Apr-19 12:57 39.641402 -106.909579 259 6550ft 0kts
21-Apr-19 12:58 39.641402 -106.909579 259 6550ft 0kts
21-Apr-19 12:59 39.641402 -106.909579 259 6550ft 0kts
21-Apr-19 13:00 39.641402 -106.909579 259 6550ft 0kts

Navigation Log

Ident Type
Flight plan parsing failed, navigation log unavailable